createdAt,value
2019-02-26T00:00:44.875Z,71.20
2019-02-26T00:04:00.779Z,73.50
2019-02-26T00:11:40.305Z,73.40
2019-02-26T00:15:06.490Z,75.80
2019-02-26T00:18:26.583Z,78.00
2019-02-26T00:21:50.127Z,74.90
2019-02-26T00:28:08.683Z,72.30
2019-02-26T00:31:10.058Z,73.10
2019-02-26T00:34:32.386Z,72.10
2019-02-26T00:37:56.542Z,68.50
2019-02-26T00:41:09.423Z,74.50
2019-02-26T00:44:25.223Z,76.70
2019-02-26T00:47:55.665Z,77.90
2019-02-26T00:51:26.913Z,79.10
2019-02-26T00:54:37.137Z,78.60
2019-02-26T01:00:19.497Z,81.10
2019-02-26T01:02:54.480Z,79.50
2019-02-26T01:05:48.249Z,79.90
2019-02-26T01:08:47.097Z,77.10
2019-02-26T01:11:42.943Z,72.00
2019-02-26T01:14:26.233Z,72.80
2019-02-26T01:17:03.786Z,73.90
2019-02-26T01:19:40.729Z,73.80
2019-02-26T01:22:58.973Z,74.30
2019-02-26T01:25:38.268Z,76.00
2019-02-26T01:28:39.598Z,78.40
2019-02-26T01:31:33.984Z,79.60
2019-02-26T01:34:20.350Z,80.50
2019-02-26T01:36:52.856Z,77.80
2019-02-26T01:39:35.638Z,77.00
2019-02-26T01:42:13.382Z,75.90
2019-02-26T01:44:50.219Z,74.10
2019-02-26T01:47:42.752Z,73.80
2019-02-26T01:50:23.552Z,75.70
2019-02-26T01:53:14.501Z,77.60
2019-02-26T01:55:56.829Z,79.10
2019-02-26T01:58:33.436Z,80.80
2019-02-26T02:01:12.019Z,82.00
2019-02-26T02:03:53.250Z,82.70
2019-02-26T02:06:41.225Z,80.90
2019-02-26T02:09:18.700Z,78.70
2019-02-26T02:12:02.185Z,72.30
2019-02-26T02:14:39.367Z,72.30
2019-02-26T02:17:25.312Z,73.20
2019-02-26T02:20:15.686Z,74.50
2019-02-26T02:23:13.504Z,77.90
2019-02-26T02:25:48.618Z,80.90
2019-02-26T02:28:46.369Z,81.90
2019-02-26T02:31:31.131Z,83.80
2019-02-26T02:34:15.637Z,83.80
2019-02-26T02:37:14.857Z,80.80
2019-02-26T02:39:55.089Z,78.90
2019-02-26T02:42:40.766Z,76.10
2019-02-26T02:45:36.975Z,78.50
2019-02-26T02:48:44.084Z,80.90
2019-02-26T02:51:25.738Z,81.80
2019-02-26T03:00:41.802Z,71.70
2019-02-26T03:03:40.186Z,72.60
2019-02-26T03:06:38.566Z,73.30
2019-02-26T03:09:20.285Z,72.80
2019-02-26T03:11:58.140Z,75.50
2019-02-26T03:14:44.500Z,78.30
2019-02-26T03:17:22.175Z,79.50
2019-02-26T03:19:58.450Z,77.50
2019-02-26T03:22:34.160Z,77.60
2019-02-26T03:25:24.363Z,81.90
2019-02-26T03:28:00.743Z,82.80
2019-02-26T03:30:40.175Z,83.90
2019-02-26T03:33:22.373Z,84.70
2019-02-26T03:36:05.502Z,84.10
2019-02-26T03:38:37.087Z,81.90
2019-02-26T03:41:10.434Z,83.70
2019-02-26T03:43:57.301Z,82.90
2019-02-26T03:46:30.233Z,83.60
2019-02-26T03:49:05.647Z,82.40
2019-02-26T03:51:39.740Z,81.40
2019-02-26T03:54:10.241Z,80.10
2019-02-26T03:56:42.824Z,79.80
2019-02-26T03:59:16.828Z,80.00
2019-02-26T04:01:49.895Z,79.30
2019-02-26T04:04:22.938Z,79.00
2019-02-26T04:06:55.758Z,78.30
2019-02-26T04:09:33.483Z,78.90
2019-02-26T04:12:07.616Z,78.60
2019-02-26T04:14:44.141Z,79.40
2019-02-26T04:17:28.637Z,77.80
2019-02-26T04:19:59.727Z,76.80
2019-02-26T04:22:42.259Z,79.60
2019-02-26T04:25:17.143Z,80.10
2019-02-26T04:28:31.214Z,79.60
2019-02-26T04:31:32.815Z,79.10
2019-02-26T04:35:00.486Z,76.70
2019-02-26T04:38:12.604Z,75.40
2019-02-26T04:41:11.988Z,75.10
2019-02-26T04:44:26.267Z,70.40
2019-02-26T04:47:09.614Z,71.40
2019-02-26T04:50:05.501Z,71.70
2019-02-26T04:52:35.743Z,76.50
2019-02-26T04:55:08.673Z,79.10
2019-02-26T04:57:42.615Z,82.30
2019-02-26T05:00:23.511Z,82.60
2019-02-26T05:02:56.167Z,83.80
2019-02-26T05:05:28.510Z,83.20
2019-02-26T05:07:59.053Z,77.70
2019-02-26T05:10:34.330Z,73.30
2019-02-26T05:13:09.554Z,70.40
2019-02-26T05:15:43.390Z,70.40
2019-02-26T05:18:13.302Z,71.40
2019-02-26T05:20:48.106Z,73.00
2019-02-26T05:23:20.680Z,74.80
2019-02-26T05:26:15.255Z,73.60
2019-02-26T05:28:46.925Z,77.90
2019-02-26T05:31:18.055Z,77.50
2019-02-26T05:33:50.134Z,78.20
2019-02-26T05:36:25.426Z,81.10
2019-02-26T05:38:59.505Z,81.00
2019-02-26T05:41:30.460Z,81.40
2019-02-26T05:44:23.368Z,80.60
2019-02-26T05:50:06.237Z,75.90
2019-02-26T05:52:35.880Z,75.70
2019-02-26T05:55:07.211Z,73.80
2019-02-26T05:57:39.703Z,75.10
2019-02-26T06:00:13.476Z,76.30
2019-02-26T06:02:44.754Z,78.30
2019-02-26T06:05:14.443Z,79.70
2019-02-26T06:07:45.689Z,81.50
2019-02-26T06:10:18.896Z,80.40
2019-02-26T06:12:48.968Z,82.60
2019-02-26T06:15:20.380Z,81.50
2019-02-26T06:17:55.928Z,81.70
2019-02-26T06:20:28.718Z,82.40
2019-02-26T06:22:58.318Z,83.40
2019-02-26T06:25:28.454Z,80.70
2019-02-26T06:28:02.309Z,81.90
2019-02-26T06:30:31.975Z,78.80
2019-02-26T06:33:04.373Z,79.00
2019-02-26T06:35:35.984Z,78.90
2019-02-26T06:38:11.510Z,76.10
2019-02-26T06:40:44.587Z,73.80
2019-02-26T06:43:15.849Z,67.70
2019-02-26T06:45:47.734Z,70.60
2019-02-26T06:48:20.894Z,72.60
2019-02-26T06:50:51.458Z,73.60
2019-02-26T06:53:21.700Z,71.10
2019-02-26T06:55:55.555Z,70.40
2019-02-26T06:58:30.693Z,71.50
2019-02-26T07:01:01.457Z,72.50
2019-02-26T07:03:33.102Z,73.30
2019-02-26T07:06:04.941Z,70.80
2019-02-26T07:08:35.211Z,70.80
2019-02-26T07:11:07.317Z,67.50
2019-02-26T07:13:39.177Z,65.50
2019-02-26T07:16:09.648Z,66.10
2019-02-26T07:18:39.836Z,67.70
2019-02-26T07:21:18.896Z,68.60
2019-02-26T07:23:51.629Z,68.30
2019-02-26T07:26:23.111Z,68.60
2019-02-26T07:28:55.835Z,68.80
2019-02-26T07:31:26.586Z,68.00
2019-02-26T07:34:00.120Z,68.90
2019-02-26T07:36:29.815Z,69.10
2019-02-26T07:38:59.998Z,67.20
2019-02-26T07:41:33.811Z,67.40
2019-02-26T07:44:09.040Z,67.10
2019-02-26T07:46:40.136Z,66.80
2019-02-26T07:49:09.966Z,65.90
2019-02-26T07:51:41.095Z,65.60
2019-02-26T07:54:13.843Z,65.50
2019-02-26T07:56:44.933Z,64.70
2019-02-26T07:59:15.202Z,62.50
2019-02-26T08:01:47.199Z,61.50
2019-02-26T08:04:18.419Z,61.60
2019-02-26T08:06:48.726Z,62.10
2019-02-26T08:09:21.245Z,63.30
2019-02-26T08:11:53.425Z,64.70
2019-02-26T08:14:25.644Z,65.50
2019-02-26T08:16:58.695Z,67.00
2019-02-26T08:19:29.713Z,67.90
2019-02-26T08:22:02.074Z,67.80
2019-02-26T08:24:32.271Z,65.90
2019-02-26T08:27:06.023Z,66.40
2019-02-26T08:29:38.428Z,65.70
2019-02-26T08:32:13.772Z,64.70
2019-02-26T08:34:44.296Z,67.00
2019-02-26T08:37:14.906Z,67.30
2019-02-26T08:39:45.566Z,67.10
2019-02-26T08:42:15.706Z,67.80
2019-02-26T08:44:46.840Z,67.60
2019-02-26T08:47:23.511Z,67.30
2019-02-26T08:49:53.713Z,66.80
2019-02-26T08:52:27.429Z,67.40
2019-02-26T08:54:59.778Z,66.60
2019-02-26T08:57:30.450Z,66.60
2019-02-26T09:00:01.665Z,65.10
2019-02-26T09:02:31.898Z,61.70
2019-02-26T09:05:04.452Z,61.80
2019-02-26T09:07:34.501Z,60.10
2019-02-26T09:10:07.147Z,61.30
2019-02-26T09:12:41.341Z,60.50
2019-02-26T09:15:13.171Z,60.80
2019-02-26T09:17:43.853Z,60.20
2019-02-26T09:20:15.535Z,59.40
2019-02-26T09:27:04.349Z,58.60
2019-02-26T09:29:36.760Z,54.90
2019-02-26T09:32:09.292Z,53.20
2019-02-26T09:34:39.942Z,51.60
2019-02-26T09:37:10.807Z,49.80
2019-02-26T09:39:47.875Z,47.10
2019-02-26T09:42:21.002Z,44.10
2019-02-26T09:44:52.971Z,42.90
2019-02-26T09:47:31.554Z,40.80
2019-02-26T09:50:04.421Z,39.80
2019-02-26T09:52:34.788Z,39.20
2019-02-26T09:55:05.640Z,38.70
2019-02-26T09:57:37.084Z,37.50
2019-02-26T10:00:10.851Z,36.00
2019-02-26T10:02:42.506Z,36.40
2019-02-26T10:05:16.409Z,34.70
2019-02-26T10:07:47.480Z,33.90
2019-02-26T10:10:18.244Z,32.70
2019-02-26T10:12:48.395Z,33.10
2019-02-26T10:15:19.774Z,31.20
2019-02-26T10:17:52.014Z,29.70
2019-02-26T10:20:25.402Z,28.50
2019-02-26T10:23:00.440Z,28.10
2019-02-26T10:25:31.941Z,30.80
2019-02-26T10:28:05.702Z,30.80
2019-02-26T10:30:40.975Z,27.30
2019-02-26T10:33:09.141Z,28.30
2019-02-26T10:35:42.003Z,27.60
2019-02-26T10:38:13.136Z,27.10
2019-02-26T10:40:53.435Z,26.70
2019-02-26T10:43:17.997Z,24.40
2019-02-26T10:45:50.544Z,24.20
2019-02-26T10:48:22.783Z,23.30
2019-02-26T10:50:54.768Z,23.80
2019-02-26T10:53:28.274Z,24.00
2019-02-26T10:56:01.059Z,24.00
2019-02-26T10:58:31.666Z,23.00
2019-02-26T11:01:05.115Z,22.40
2019-02-26T11:03:37.966Z,22.10
2019-02-26T11:06:08.159Z,21.10
2019-02-26T11:08:41.211Z,20.00
2019-02-26T11:11:18.193Z,18.60
2019-02-26T11:13:51.197Z,18.20
2019-02-26T11:16:43.428Z,17.30
2019-02-26T11:19:13.886Z,17.10
2019-02-26T11:21:47.341Z,16.60
2019-02-26T11:24:17.349Z,16.30
2019-02-26T11:26:47.574Z,15.20
2019-02-26T11:29:18.141Z,16.00
2019-02-26T11:31:49.720Z,15.70
2019-02-26T11:34:20.092Z,14.70
2019-02-26T11:36:50.271Z,14.40
2019-02-26T11:39:21.481Z,14.70
2019-02-26T11:41:53.619Z,13.50
2019-02-26T11:44:25.779Z,13.40
2019-02-26T11:46:56.499Z,12.20
2019-02-26T11:49:31.132Z,13.30
2019-02-26T11:52:07.176Z,11.90
2019-02-26T11:54:39.690Z,11.70
2019-02-26T11:57:11.192Z,12.00
2019-02-26T11:59:42.865Z,11.40
2019-02-26T12:02:24.914Z,11.30
2019-02-26T12:04:49.415Z,11.20
2019-02-26T12:07:19.857Z,11.20
2019-02-26T12:09:50.078Z,10.60
2019-02-26T12:12:20.573Z,11.10
2019-02-26T12:14:51.674Z,10.60
2019-02-26T12:17:24.050Z,9.10
2019-02-26T12:19:57.942Z,8.70
2019-02-26T12:22:29.898Z,8.90
2019-02-26T12:25:05.143Z,9.40
2019-02-26T12:27:39.018Z,9.60
2019-02-26T12:30:15.245Z,8.00
2019-02-26T12:32:47.562Z,7.50
2019-02-26T12:35:18.037Z,7.90
2019-02-26T12:37:50.185Z,10.10
2019-02-26T12:40:25.545Z,8.30
2019-02-26T12:42:57.946Z,7.60
2019-02-26T12:45:31.037Z,7.10
2019-02-26T12:48:03.558Z,6.20
2019-02-26T12:50:36.646Z,6.50
2019-02-26T12:53:12.706Z,7.10
2019-02-26T12:55:42.709Z,8.40
2019-02-26T12:58:16.993Z,9.40
2019-02-26T13:00:45.299Z,9.50
2019-02-26T13:03:19.646Z,7.50
2019-02-26T13:05:49.193Z,6.80
2019-02-26T13:08:20.531Z,6.90
2019-02-26T13:10:56.160Z,6.30
2019-02-26T13:13:24.368Z,5.50
2019-02-26T13:15:54.749Z,5.40
2019-02-26T13:18:25.171Z,5.60
2019-02-26T13:20:59.288Z,5.40
2019-02-26T13:23:27.564Z,7.00
2019-02-26T13:25:57.910Z,8.30
2019-02-26T13:28:29.678Z,8.60
2019-02-26T13:31:02.349Z,9.20
2019-02-26T13:33:35.143Z,8.60
2019-02-26T13:36:04.841Z,8.70
2019-02-26T13:38:44.058Z,7.80
2019-02-26T13:41:25.242Z,8.20
2019-02-26T13:43:38.945Z,7.60
2019-02-26T13:46:09.247Z,7.90
2019-02-26T13:48:39.695Z,7.90
2019-02-26T13:51:10.103Z,7.60
2019-02-26T13:53:40.536Z,7.20
2019-02-26T13:56:10.829Z,7.00
2019-02-26T13:58:41.824Z,6.10
2019-02-26T14:01:12.395Z,6.70
2019-02-26T14:03:42.908Z,6.10
2019-02-26T14:06:13.499Z,6.40
2019-02-26T14:08:46.539Z,4.70
2019-02-26T14:11:16.752Z,5.00
2019-02-26T14:13:47.323Z,5.60
2019-02-26T14:16:17.518Z,3.20
2019-02-26T14:18:48.257Z,2.10
2019-02-26T14:21:18.636Z,4.70
2019-02-26T14:23:48.827Z,1.00
2019-02-26T14:26:19.513Z,1.00
2019-02-26T14:28:49.799Z,1.00
2019-02-26T14:31:20.074Z,1.00
2019-02-26T14:33:50.752Z,1.00
2019-02-26T14:36:21.110Z,1.00
2019-02-26T14:38:51.278Z,1.00
2019-02-26T14:41:21.570Z,1.00
2019-02-26T14:43:51.821Z,1.00
2019-02-26T14:46:21.976Z,1.00
2019-02-26T14:48:52.157Z,1.00
2019-02-26T14:51:22.417Z,1.00
2019-02-26T14:53:52.811Z,1.00
2019-02-26T14:56:25.014Z,1.00
2019-02-26T14:58:55.311Z,1.00
2019-02-26T15:01:25.647Z,3.40
2019-02-26T15:03:56.483Z,1.10
2019-02-26T15:06:26.598Z,1.00
2019-02-26T15:08:56.722Z,1.00
2019-02-26T15:11:28.233Z,1.00
2019-02-26T15:13:58.406Z,1.00
2019-02-26T15:16:28.882Z,1.00
2019-02-26T15:18:59.046Z,1.00
2019-02-26T15:21:29.925Z,1.00
2019-02-26T15:24:00.115Z,1.00
2019-02-26T15:26:30.320Z,1.00
2019-02-26T15:29:00.427Z,1.00
2019-02-26T15:31:30.627Z,1.00
2019-02-26T15:34:00.741Z,1.00
2019-02-26T15:36:30.951Z,1.00
2019-02-26T15:39:01.068Z,1.00
2019-02-26T15:41:31.208Z,1.00
2019-02-26T15:44:01.356Z,1.00
2019-02-26T15:46:32.503Z,1.00
2019-02-26T15:49:07.323Z,1.00
2019-02-26T15:51:35.192Z,1.00
2019-02-26T15:54:06.558Z,1.00
2019-02-26T15:56:36.815Z,1.00
2019-02-26T15:59:07.205Z,1.00
2019-02-26T16:01:37.623Z,1.00
2019-02-26T16:04:07.851Z,1.00
2019-02-26T16:06:38.942Z,1.00
2019-02-26T16:09:12.461Z,1.00
2019-02-26T16:11:43.082Z,1.10
2019-02-26T16:14:20.209Z,1.80
2019-02-26T16:16:50.389Z,2.40
2019-02-26T16:19:33.524Z,3.00
2019-02-26T16:22:06.994Z,3.10
2019-02-26T16:24:37.131Z,3.90
2019-02-26T16:27:07.679Z,4.40
2019-02-26T16:29:38.301Z,4.90
2019-02-26T16:32:09.178Z,5.50
2019-02-26T16:34:42.974Z,6.10
2019-02-26T16:37:13.402Z,6.90
2019-02-26T16:39:48.317Z,8.40
2019-02-26T16:42:19.893Z,9.60
2019-02-26T16:44:55.529Z,10.40
2019-02-26T16:47:28.753Z,11.20
2019-02-26T16:50:11.818Z,12.70
2019-02-26T16:52:31.699Z,14.10
2019-02-26T16:55:03.141Z,15.50
2019-02-26T16:57:33.927Z,16.70
2019-02-26T17:00:06.152Z,17.10
2019-02-26T17:05:15.396Z,18.60
2019-02-26T17:07:47.459Z,19.00
2019-02-26T17:10:18.272Z,18.90
2019-02-26T17:12:51.378Z,19.90
2019-02-26T17:15:24.629Z,19.90
2019-02-26T17:17:55.903Z,20.80
2019-02-26T17:20:27.049Z,21.70
2019-02-26T17:22:58.890Z,22.80
2019-02-26T17:25:29.563Z,23.00
2019-02-26T17:27:59.961Z,22.90
2019-02-26T17:30:31.887Z,23.30
2019-02-26T17:33:02.476Z,24.60
2019-02-26T17:35:32.627Z,24.90
2019-02-26T17:38:04.300Z,24.70
2019-02-26T17:40:36.735Z,25.30
2019-02-26T17:43:06.510Z,26.30
2019-02-26T17:45:37.211Z,27.20
2019-02-26T17:48:08.169Z,26.40
2019-02-26T17:50:38.404Z,27.40
2019-02-26T17:53:08.969Z,28.40
2019-02-26T17:55:39.989Z,29.30
2019-02-26T17:58:11.221Z,29.80
2019-02-26T18:00:42.800Z,29.30
2019-02-26T18:03:15.834Z,29.20
2019-02-26T18:05:51.291Z,29.10
2019-02-26T18:08:19.888Z,29.20
2019-02-26T18:10:51.540Z,29.60
2019-02-26T18:13:21.812Z,29.80
2019-02-26T18:15:56.064Z,30.00
2019-02-26T18:18:24.664Z,30.00
2019-02-26T18:20:54.917Z,30.30
2019-02-26T18:23:25.574Z,31.70
2019-02-26T18:25:55.749Z,32.30
2019-02-26T18:28:26.037Z,32.40
2019-02-26T18:30:58.011Z,32.20
2019-02-26T18:33:28.617Z,32.20
2019-02-26T18:35:59.368Z,32.20
2019-02-26T18:38:29.763Z,32.20
2019-02-26T18:41:00.779Z,33.40
2019-02-26T18:43:31.909Z,33.40
2019-02-26T18:46:02.625Z,33.60
2019-02-26T18:48:32.856Z,33.80
2019-02-26T18:51:03.102Z,34.10
2019-02-26T18:53:33.334Z,36.10
2019-02-26T18:56:04.199Z,36.90
2019-02-26T18:58:35.062Z,37.30
2019-02-26T19:01:05.330Z,37.80
2019-02-26T19:03:35.718Z,38.70
2019-02-26T19:06:06.074Z,37.90
2019-02-26T19:08:39.956Z,36.30
2019-02-26T19:11:16.682Z,35.60
2019-02-26T19:13:53.931Z,37.30
2019-02-26T19:16:27.588Z,37.60
2019-02-26T19:19:02.096Z,37.40
2019-02-26T19:21:33.504Z,38.50
2019-02-26T19:24:06.388Z,39.60
2019-02-26T19:26:36.674Z,42.00
2019-02-26T19:29:10.105Z,41.40
2019-02-26T19:31:42.413Z,40.10
2019-02-26T19:34:13.496Z,40.40
2019-02-26T19:37:30.583Z,41.30
2019-02-26T19:40:07.126Z,41.60
2019-02-26T19:42:39.443Z,42.70
2019-02-26T19:45:11.811Z,41.40
2019-02-26T19:47:59.120Z,43.90
2019-02-26T19:50:29.679Z,45.00
2019-02-26T19:53:02.481Z,43.70
2019-02-26T19:55:34.791Z,43.90
2019-02-26T19:58:07.098Z,44.20
2019-02-26T20:00:37.538Z,42.20
2019-02-26T20:03:09.407Z,42.50
2019-02-26T20:05:41.150Z,42.90
2019-02-26T20:08:17.433Z,45.20
2019-02-26T20:10:49.187Z,46.90
2019-02-26T20:13:23.133Z,46.90
2019-02-26T20:15:54.866Z,46.50
2019-02-26T20:18:28.691Z,47.80
2019-02-26T20:20:59.517Z,49.80
2019-02-26T20:23:31.193Z,50.50
2019-02-26T20:26:02.615Z,51.70
2019-02-26T20:28:35.434Z,51.40
2019-02-26T20:31:06.388Z,50.50
2019-02-26T20:33:37.358Z,50.60
2019-02-26T20:36:08.617Z,51.20
2019-02-26T20:38:39.074Z,52.40
2019-02-26T20:41:56.695Z,51.20
2019-02-26T20:44:28.342Z,50.80
2019-02-26T20:46:59.631Z,50.30
2019-02-26T20:52:59.936Z,50.90
2019-02-26T20:58:31.727Z,54.50
2019-02-26T21:04:39.369Z,57.80
2019-02-26T21:07:28.349Z,58.40
2019-02-26T21:14:07.524Z,57.90
2019-02-26T21:21:07.450Z,55.70
2019-02-26T21:24:34.617Z,55.50
2019-02-26T21:28:21.235Z,56.10
2019-02-26T21:32:04.320Z,55.50
2019-02-26T21:35:37.761Z,58.60
2019-02-26T21:38:40.959Z,59.60
2019-02-26T21:42:09.385Z,60.70
2019-02-26T21:49:35.750Z,63.30
2019-02-26T21:53:32.082Z,61.00
2019-02-26T21:57:12.420Z,60.70
2019-02-26T22:00:57.358Z,60.00
2019-02-26T22:04:31.740Z,62.50
2019-02-26T22:07:55.496Z,66.20
2019-02-26T22:11:05.213Z,68.20
2019-02-26T22:13:57.008Z,65.80
2019-02-26T22:17:08.968Z,65.50
2019-02-26T22:20:01.591Z,63.50
2019-02-26T22:26:23.625Z,65.90
2019-02-26T22:29:02.753Z,65.20
2019-02-26T22:34:50.840Z,71.00
2019-02-26T22:37:41.365Z,71.30
2019-02-26T22:40:48.934Z,71.90
2019-02-26T22:48:08.630Z,68.00
2019-02-26T22:51:48.510Z,72.20
2019-02-26T23:09:30.599Z,74.80
2019-02-26T23:12:46.684Z,75.40
2019-02-26T23:19:10.941Z,70.00
2019-02-26T23:21:52.291Z,72.90
2019-02-26T23:37:14.392Z,71.20
2019-02-26T23:40:14.058Z,69.00
2019-02-26T23:47:17.528Z,74.50
2019-02-26T23:51:04.175Z,80.10
2019-02-26T23:53:47.647Z,79.80
2019-02-26T23:56:30.730Z,79.90
2019-02-26T23:59:41.786Z,78.50
